Time;durP1;ratioP1;P1;durP2;ratioP2;P2;SDS_P1;SDS_P2;PMS_P1;PMS_P2;Temp;Humidity;BMP_temperature;BMP_pressure;BME280_temperature;BME280_humidity;BME280_pressure;Samples;Min_cycle;Max_cycle;Signal;HPM_P1;HPM_P2
2022/05/26 00:01:17;;;;;;;0.98;0.30;;;16.30;53.70;;;;;;4982060;28;20499;-72
2022/05/26 00:03:44;;;;;;;0.55;0.30;;;16.40;53.70;;;;;;4955768;28;20160;-74
2022/05/26 00:06:12;;;;;;;1.38;0.38;;;16.30;53.60;;;;;;4969834;28;20087;-74
2022/05/26 00:08:37;;;;;;;0.73;0.35;;;16.30;53.70;;;;;;4999015;28;20042;-73
2022/05/26 00:11:05;;;;;;;0.60;0.40;;;16.30;53.70;;;;;;4986552;28;20104;-73
2022/05/26 00:13:30;;;;;;;0.40;0.30;;;16.30;53.70;;;;;;4964739;28;20031;-73
2022/05/26 00:15:56;;;;;;;1.67;0.30;;;16.30;53.80;;;;;;4966439;28;20061;-74
2022/05/26 00:18:22;;;;;;;0.70;0.40;;;16.30;53.80;;;;;;4971801;28;20049;-75
2022/05/26 00:20:47;;;;;;;0.90;0.30;;;16.30;53.90;;;;;;4983278;28;20034;-74
2022/05/26 00:23:13;;;;;;;2.30;0.40;;;16.30;53.90;;;;;;4997379;28;20034;-73
2022/05/26 00:25:39;;;;;;;1.23;0.30;;;16.30;53.90;;;;;;4986568;28;20065;-73
2022/05/26 00:28:05;;;;;;;2.22;0.40;;;16.30;54.00;;;;;;4959280;28;20100;-73
2022/05/26 00:30:30;;;;;;;1.50;0.60;;;16.30;54.00;;;;;;4977927;28;20031;-74
2022/05/26 00:32:56;;;;;;;0.65;0.32;;;16.30;54.20;;;;;;4986728;28;20375;-74
2022/05/26 00:35:22;;;;;;;0.30;0.30;;;16.30;54.20;;;;;;4981213;28;20034;-74
2022/05/26 00:37:47;;;;;;;1.55;0.30;;;16.20;54.10;;;;;;4993789;28;20034;-73
2022/05/26 00:40:13;;;;;;;3.83;0.57;;;16.20;54.40;;;;;;4997647;28;20592;-73
2022/05/26 00:42:39;;;;;;;1.13;0.20;;;16.20;54.50;;;;;;4968841;28;20666;-73
2022/05/26 00:45:06;;;;;;;1.65;0.95;;;16.30;54.50;;;;;;4977536;28;20041;-73
2022/05/26 00:47:33;;;;;;;0.95;0.32;;;16.20;54.50;;;;;;4967215;28;20037;-73
2022/05/26 00:50:05;;;;;;;0.40;0.30;;;16.20;54.50;;;;;;4970423;28;20526;-74
2022/05/26 00:52:51;;;;;;;0.30;0.30;;;16.20;54.70;;;;;;4982023;28;20133;-74
2022/05/26 00:55:23;;;;;;;3.30;0.52;;;16.20;54.80;;;;;;4967215;28;20033;-73
2022/05/26 00:57:54;;;;;;;0.75;0.40;;;16.20;54.80;;;;;;4978226;28;20110;-74
2022/05/26 01:00:21;;;;;;;;;;;16.20;54.80;;;;;;4996917;28;20685;-74
2022/05/26 01:03:03;;;;;;;1.05;0.28;;;16.20;54.60;;;;;;5001119;28;19917;-73
2022/05/26 01:05:31;;;;;;;1.05;0.40;;;16.20;54.90;;;;;;4995098;28;20034;-73
2022/05/26 01:07:57;;;;;;;0.57;0.30;;;16.20;54.70;;;;;;4982409;28;20725;-73
2022/05/26 01:10:23;;;;;;;0.40;0.20;;;16.10;54.80;;;;;;4978466;28;20068;-73
2022/05/26 01:12:48;;;;;;;0.35;0.35;;;16.10;54.80;;;;;;4964838;28;20198;-72
2022/05/26 01:15:16;;;;;;;0.80;0.30;;;16.10;55.00;;;;;;4995788;28;20062;-72
2022/05/26 01:18:32;;;;;;;1.20;0.35;;;16.10;55.10;;;;;;4978949;28;20465;-72
2022/05/26 01:21:11;;;;;;;1.38;0.45;;;16.10;55.60;;;;;;4965069;28;20038;-72
2022/05/26 01:24:03;;;;;;;1.73;0.35;;;16.10;55.50;;;;;;4993995;28;20109;-75
2022/05/26 01:26:34;;;;;;;0.68;0.20;;;16.10;55.40;;;;;;4986347;28;20092;-74
2022/05/26 01:29:37;;;;;;;0.50;0.40;;;16.10;55.30;;;;;;4982510;28;20105;-74
2022/05/26 01:32:24;;;;;;;0.95;0.30;;;16.10;55.80;;;;;;4996026;28;20049;-74
2022/05/26 01:35:29;;;;;;;3.92;0.40;;;16.10;55.90;;;;;;4980031;28;20581;-74
2022/05/26 01:38:04;;;;;;;0.45;0.30;;;16.10;56.00;;;;;;4997915;28;20117;-74
2022/05/26 01:40:55;;;;;;;0.47;0.38;;;16.10;55.90;;;;;;4984984;28;20034;-73
2022/05/26 01:43:28;;;;;;;0.20;0.20;;;16.10;55.90;;;;;;4988174;28;20030;-74
2022/05/26 01:46:13;;;;;;;2.08;0.40;;;16.10;55.90;;;;;;4996008;28;20030;-73
2022/05/26 01:48:53;;;;;;;1.27;0.50;;;16.10;56.30;;;;;;4986830;28;20038;-73
2022/05/26 01:51:28;;;;;;;1.50;0.35;;;16.10;56.30;;;;;;4975209;28;20030;-73
2022/05/26 01:54:15;;;;;;;0.30;0.30;;;16.00;56.30;;;;;;4995032;28;20065;-73
2022/05/26 01:57:01;;;;;;;0.65;0.32;;;16.00;56.50;;;;;;4971077;28;20065;-73
2022/05/26 01:59:30;;;;;;;0.50;0.35;;;16.00;56.30;;;;;;4997307;28;20038;-74
2022/05/26 02:01:59;;;;;;;0.40;0.25;;;16.00;56.30;;;;;;4997604;28;20056;-73
2022/05/26 02:04:32;;;;;;;0.35;0.30;;;16.00;56.30;;;;;;4983877;28;20088;-74
2022/05/26 02:07:14;;;;;;;0.47;0.30;;;16.00;56.40;;;;;;4987262;28;20065;-74
2022/05/26 02:09:41;;;;;;;1.02;0.47;;;16.00;56.60;;;;;;4991490;28;20119;-73
2022/05/26 02:12:16;;;;;;;1.30;0.40;;;16.00;56.50;;;;;;4992985;28;20075;-74
2022/05/26 02:14:47;;;;;;;2.78;0.40;;;16.00;56.60;;;;;;4969412;28;20034;-73
2022/05/26 02:17:13;;;;;;;1.17;0.50;;;16.00;56.60;;;;;;4999027;28;20049;-73
2022/05/26 02:19:43;;;;;;;2.47;0.50;;;16.00;56.60;;;;;;4975408;28;20034;-73
2022/05/26 02:22:20;;;;;;;1.17;0.40;;;16.00;56.70;;;;;;4984779;28;20123;-73
2022/05/26 02:24:59;;;;;;;1.95;0.40;;;16.00;56.90;;;;;;4994471;28;20034;-73
2022/05/26 02:27:26;;;;;;;3.38;0.40;;;16.00;56.80;;;;;;4973914;28;20073;-73
2022/05/26 02:29:52;;;;;;;0.57;0.28;;;16.00;56.80;;;;;;4985523;28;20581;-74
2022/05/26 02:32:28;;;;;;;2.40;0.30;;;16.00;56.90;;;;;;4993002;28;20068;-73
2022/05/26 02:34:56;;;;;;;1.60;0.30;;;15.90;57.10;;;;;;4985050;28;20042;-73
2022/05/26 02:37:22;;;;;;;0.30;0.30;;;15.90;56.90;;;;;;4969338;28;20084;-73
2022/05/26 02:39:47;;;;;;;0.93;0.40;;;15.90;56.90;;;;;;4959015;28;20434;-73
2022/05/26 02:42:13;;;;;;;1.45;0.30;;;15.90;57.00;;;;;;4982333;28;20046;-73
2022/05/26 02:44:38;;;;;;;0.50;0.30;;;15.90;57.00;;;;;;4997074;28;20510;-75
2022/05/26 02:47:27;;;;;;;0.50;0.30;;;15.90;57.10;;;;;;4985720;28;20879;-73
2022/05/26 02:50:00;;;;;;;2.03;0.50;;;15.90;57.30;;;;;;4986402;28;20439;-73
2022/05/26 02:52:39;;;;;;;0.40;0.38;;;15.90;57.30;;;;;;4981622;28;20049;-73
2022/05/26 02:55:29;;;;;;;0.60;0.43;;;15.90;57.40;;;;;;4971659;28;20172;-73
2022/05/26 02:58:22;;;;;;;0.40;0.30;;;15.90;57.40;;;;;;4982585;28;20033;-72
2022/05/26 03:01:26;;;;;;;1.50;1.08;;;15.90;57.50;;;;;;4984644;28;20103;-73
2022/05/26 03:04:11;;;;;;;0.90;0.40;;;15.90;57.70;;;;;;4983348;28;20087;-73
2022/05/26 03:06:49;;;;;;;0.50;0.40;;;15.90;57.40;;;;;;4970958;28;20046;-73
2022/05/26 03:09:14;;;;;;;1.92;0.32;;;15.90;57.80;;;;;;4992462;28;20546;-73
2022/05/26 03:11:57;;;;;;;1.38;0.30;;;15.80;57.50;;;;;;4981870;28;20076;-73
2022/05/26 03:14:22;;;;;;;5.80;0.50;;;15.90;57.70;;;;;;4980662;28;20030;-74
2022/05/26 03:16:48;;;;;;;0.50;0.30;;;15.80;57.50;;;;;;4959073;28;20034;-73
2022/05/26 03:19:14;;;;;;;1.33;0.40;;;15.90;57.50;;;;;;4985251;28;20033;-73
2022/05/26 03:21:39;;;;;;;0.55;0.30;;;15.90;57.50;;;;;;4996928;28;20041;-74
2022/05/26 03:24:05;;;;;;;0.63;0.40;;;15.90;57.50;;;;;;4982272;28;20034;-73
2022/05/26 03:26:31;;;;;;;0.30;0.30;;;15.90;57.50;;;;;;4999146;28;20030;-73
2022/05/26 03:28:57;;;;;;;4.00;0.40;;;15.90;57.40;;;;;;4995412;28;20450;-73
2022/05/26 03:31:23;;;;;;;1.38;0.63;;;15.90;57.50;;;;;;4984646;28;20033;-73
2022/05/26 03:42:00;;;;;;;0.70;0.30;;;15.90;57.40;;;;;;4983898;28;20582;-73
2022/05/26 03:44:27;;;;;;;0.63;0.35;;;15.90;57.50;;;;;;4966545;28;20109;-73
2022/05/26 03:46:52;;;;;;;2.35;0.40;;;15.90;57.50;;;;;;4995569;28;20033;-73
2022/05/26 03:49:18;;;;;;;0.47;0.30;;;15.90;57.50;;;;;;4994189;28;20643;-73
2022/05/26 03:51:43;;;;;;;1.30;0.30;;;15.90;57.40;;;;;;4968523;28;20057;-74
2022/05/26 03:54:09;;;;;;;5.10;0.70;;;15.90;57.40;;;;;;4981291;28;20046;-73
2022/05/26 03:56:35;;;;;;;0.80;0.45;;;15.90;57.50;;;;;;4965154;28;20037;-73
2022/05/26 03:59:00;;;;;;;0.30;0.25;;;15.90;57.40;;;;;;4971700;28;20045;-73
2022/05/26 04:01:27;;;;;;;3.08;0.40;;;15.90;57.60;;;;;;4998872;28;20135;-73
2022/05/26 04:03:52;;;;;;;3.83;0.50;;;15.90;57.60;;;;;;4953375;28;20038;-72
2022/05/26 04:06:18;;;;;;;1.20;0.30;;;15.90;57.60;;;;;;4965024;28;20035;-72
2022/05/26 04:08:44;;;;;;;2.83;0.30;;;15.90;57.60;;;;;;4977186;28;20042;-72
2022/05/26 04:11:09;;;;;;;0.30;0.30;;;15.90;57.60;;;;;;4982615;28;20463;-73
2022/05/26 04:13:35;;;;;;;0.77;0.40;;;15.90;57.60;;;;;;4965025;28;20061;-74
2022/05/26 04:16:01;;;;;;;2.03;0.52;;;15.90;57.70;;;;;;4997002;28;20088;-74
2022/05/26 04:18:26;;;;;;;0.80;0.30;;;15.90;57.70;;;;;;4978963;28;20034;-72
2022/05/26 04:20:52;;;;;;;0.65;0.50;;;16.00;57.70;;;;;;4976493;28;20041;-74
2022/05/26 04:23:17;;;;;;;1.00;0.40;;;15.90;57.60;;;;;;4964998;28;20030;-74
2022/05/26 04:25:43;;;;;;;1.45;0.30;;;16.00;57.70;;;;;;4965469;28;20100;-72
2022/05/26 04:28:08;;;;;;;0.73;0.40;;;16.00;57.70;;;;;;4962683;28;20040;-73
2022/05/26 04:30:34;;;;;;;0.50;0.30;;;16.00;57.60;;;;;;4980772;28;20040;-74
2022/05/26 04:32:59;;;;;;;0.82;0.30;;;16.00;57.60;;;;;;4961145;28;20080;-72
2022/05/26 04:35:25;;;;;;;0.52;0.40;;;16.00;57.50;;;;;;4992827;28;20470;-74
2022/05/26 04:37:50;;;;;;;2.30;0.30;;;16.10;57.50;;;;;;4981829;28;20022;-72
2022/05/26 04:40:16;;;;;;;1.88;0.30;;;16.10;57.50;;;;;;4982184;28;20049;-73
2022/05/26 04:42:42;;;;;;;0.68;0.43;;;16.10;57.50;;;;;;4970799;28;20120;-72
2022/05/26 04:45:09;;;;;;;1.45;0.55;;;16.10;57.50;;;;;;4990012;28;20122;-73
2022/05/26 04:47:34;;;;;;;0.50;0.30;;;16.10;57.50;;;;;;4975900;28;20044;-72
2022/05/26 04:50:02;;;;;;;2.10;0.47;;;16.10;57.40;;;;;;4980137;28;20558;-72
2022/05/26 04:52:28;;;;;;;1.17;0.30;;;16.20;57.50;;;;;;4969430;28;20039;-74
2022/05/26 04:54:54;;;;;;;1.33;0.43;;;16.20;57.50;;;;;;4970141;28;20038;-72
2022/05/26 04:57:21;;;;;;;0.70;0.35;;;16.30;57.50;;;;;;4967585;28;20041;-72
2022/05/26 04:59:46;;;;;;;1.60;0.35;;;16.30;57.50;;;;;;4964208;28;20033;-72
2022/05/26 05:02:13;;;;;;;2.55;0.45;;;16.30;57.40;;;;;;4996251;28;20022;-73
2022/05/26 05:04:40;;;;;;;0.68;0.30;;;16.30;57.40;;;;;;4967637;28;20454;-75
2022/05/26 05:07:07;;;;;;;1.50;0.30;;;16.40;57.50;;;;;;4975768;28;20236;-73
2022/05/26 05:09:32;;;;;;;0.93;0.40;;;16.40;57.40;;;;;;4991807;28;20103;-74
2022/05/26 05:11:58;;;;;;;0.80;0.47;;;16.40;57.50;;;;;;4974360;28;20617;-73
2022/05/26 05:14:23;;;;;;;0.55;0.40;;;16.40;57.40;;;;;;4964449;28;20743;-73
2022/05/26 05:16:50;;;;;;;0.98;0.30;;;16.50;57.50;;;;;;4980525;28;20461;-75
2022/05/26 05:19:17;;;;;;;2.10;0.45;;;16.40;57.50;;;;;;5002816;28;20038;-74
2022/05/26 05:21:52;;;;;;;0.68;0.40;;;16.50;57.60;;;;;;4978861;28;20035;-73
2022/05/26 05:24:37;;;;;;;1.98;0.38;;;16.50;57.70;;;;;;4978133;28;20045;-72
2022/05/26 05:27:06;;;;;;;0.68;0.38;;;16.60;57.80;;;;;;4980268;28;20034;-73
2022/05/26 05:29:33;;;;;;;2.28;0.40;;;16.60;57.60;;;;;;4962244;28;20046;-75
2022/05/26 05:32:02;;;;;;;0.47;0.20;;;16.60;57.60;;;;;;4952383;28;20049;-73
2022/05/26 05:34:33;;;;;;;1.58;0.40;;;16.70;57.60;;;;;;4956912;28;20042;-72
2022/05/26 05:36:59;;;;;;;1.80;0.28;;;16.80;57.60;;;;;;4968464;28;20045;-73
2022/05/26 05:39:24;;;;;;;4.35;0.40;;;16.80;57.50;;;;;;4994547;28;20093;-73
2022/05/26 05:41:50;;;;;;;0.20;0.20;;;16.90;57.50;;;;;;4983176;28;20052;-74
2022/05/26 05:44:16;;;;;;;1.40;0.50;;;16.90;57.50;;;;;;4987762;28;20092;-72
2022/05/26 05:46:53;;;;;;;1.67;0.60;;;17.00;57.60;;;;;;4981086;28;20450;-72
2022/05/26 05:49:20;;;;;;;0.40;0.28;;;16.90;57.40;;;;;;4983386;28;20066;-73
2022/05/26 05:51:45;;;;;;;1.23;0.25;;;17.00;57.50;;;;;;4979959;28;20041;-73
2022/05/26 05:54:11;;;;;;;0.55;0.30;;;17.10;57.50;;;;;;5001001;28;20037;-73
2022/05/26 05:56:37;;;;;;;0.40;0.20;;;17.10;57.50;;;;;;4957809;28;20403;-73
2022/05/26 05:59:03;;;;;;;0.47;0.20;;;17.20;57.50;;;;;;4983804;28;20525;-74
2022/05/26 06:01:28;;;;;;;0.45;0.22;;;17.20;57.50;;;;;;4973895;28;20038;-73
2022/05/26 06:03:54;;;;;;;1.50;0.30;;;17.30;57.50;;;;;;4973243;28;20050;-74
2022/05/26 06:06:19;;;;;;;0.20;0.20;;;17.30;57.40;;;;;;4981262;28;20030;-73
2022/05/26 06:08:45;;;;;;;1.80;0.32;;;17.40;57.40;;;;;;4959920;28;20042;-73
2022/05/26 06:11:10;;;;;;;1.20;0.30;;;17.50;57.40;;;;;;4960828;28;20084;-72
2022/05/26 06:13:36;;;;;;;1.55;0.20;;;17.60;57.30;;;;;;4970621;28;20038;-73
2022/05/26 06:16:02;;;;;;;2.65;0.40;;;17.70;57.20;;;;;;4998669;28;20049;-70
2022/05/26 06:18:27;;;;;;;0.70;0.25;;;17.80;57.20;;;;;;4990064;28;20038;-74
2022/05/26 06:21:06;;;;;;;0.43;0.30;;;17.90;57.10;;;;;;4980758;28;20633;-74
2022/05/26 06:23:31;;;;;;;5.13;0.50;;;18.00;57.00;;;;;;4980023;28;20058;-72
2022/05/26 06:25:57;;;;;;;1.02;0.50;;;18.10;56.70;;;;;;5000476;28;20663;-74
2022/05/26 06:31:08;;;;;;;0.90;0.40;;;18.30;56.50;;;;;;4983895;28;20118;-74
2022/05/26 06:39:02;;;;;;;1.88;0.22;;;18.30;56.20;;;;;;4983678;28;20064;-75
2022/05/26 06:44:11;;;;;;;0.45;0.22;;;18.40;56.20;;;;;;4979956;28;20060;-73
2022/05/26 06:46:37;;;;;;;0.40;0.22;;;18.40;56.10;;;;;;4986198;28;20489;-72
2022/05/26 06:49:03;;;;;;;0.55;0.20;;;18.40;56.10;;;;;;4989793;28;20066;-73
2022/05/26 06:51:30;;;;;;;2.40;0.70;;;18.50;56.10;;;;;;4997370;28;20068;-73
2022/05/26 06:53:56;;;;;;;2.70;0.40;;;18.50;56.00;;;;;;4993761;28;20117;-73
2022/05/26 06:56:21;;;;;;;0.35;0.22;;;18.60;56.10;;;;;;4966322;28;20097;-73
2022/05/26 06:58:47;;;;;;;0.82;0.20;;;18.60;55.90;;;;;;4970876;28;20050;-73
2022/05/26 07:01:15;;;;;;;0.50;0.20;;;18.70;55.80;;;;;;4977687;28;20033;-72
2022/05/26 07:03:41;;;;;;;0.60;0.20;;;18.80;55.90;;;;;;4976879;28;20050;-73
2022/05/26 07:06:21;;;;;;;0.80;0.30;;;18.90;55.80;;;;;;4961927;28;20510;-74
2022/05/26 07:08:47;;;;;;;0.45;0.25;;;18.90;55.70;;;;;;4979942;28;20507;-73
2022/05/26 07:11:12;;;;;;;0.98;0.22;;;19.00;55.60;;;;;;4995935;28;20037;-73
2022/05/26 07:13:38;;;;;;;0.43;0.20;;;19.00;55.50;;;;;;4989698;28;20037;-73
2022/05/26 07:16:04;;;;;;;1.23;0.35;;;19.20;55.50;;;;;;4982790;28;20052;-74
2022/05/26 07:18:30;;;;;;;2.33;0.20;;;19.20;55.40;;;;;;4992181;28;20038;-74
2022/05/26 07:20:56;;;;;;;0.30;0.30;;;19.30;55.30;;;;;;4966843;28;20038;-73
2022/05/26 07:23:21;;;;;;;1.08;0.25;;;19.40;55.10;;;;;;4970239;28;20100;-73
2022/05/26 07:25:47;;;;;;;2.90;0.30;;;19.40;55.10;;;;;;4983785;28;20061;-73
2022/05/26 07:28:12;;;;;;;0.43;0.10;;;19.50;55.00;;;;;;4981376;28;20092;-73
2022/05/26 07:30:41;;;;;;;2.13;0.20;;;19.60;54.90;;;;;;4982421;28;20128;-73
2022/05/26 07:33:07;;;;;;;3.38;0.20;;;19.60;54.80;;;;;;4978871;28;20522;-73
2022/05/26 07:35:33;;;;;;;0.38;0.20;;;19.60;54.70;;;;;;4985418;28;20102;-74
2022/05/26 07:43:30;;;;;;;1.05;0.20;;;19.80;54.50;;;;;;4972660;28;20057;-74
2022/05/26 07:45:56;;;;;;;0.73;0.32;;;19.80;54.40;;;;;;4965065;28;20079;-74
2022/05/26 07:48:21;;;;;;;2.17;0.28;;;19.90;54.30;;;;;;4968791;28;21451;-74
2022/05/26 07:50:47;;;;;;;2.65;0.40;;;20.00;54.20;;;;;;4996994;28;20030;-74
2022/05/26 07:53:12;;;;;;;0.95;0.13;;;20.10;54.10;;;;;;4988754;28;20037;-74
2022/05/26 07:55:42;;;;;;;0.85;0.30;;;20.10;54.00;;;;;;4985440;28;20049;-74
2022/05/26 07:58:08;;;;;;;0.40;0.20;;;20.20;53.90;;;;;;4981789;28;20041;-73
2022/05/26 08:00:34;;;;;;;0.88;0.20;;;20.30;53.80;;;;;;4942558;28;20057;-73
2022/05/26 08:03:00;;;;;;;2.22;0.28;;;20.40;53.70;;;;;;4983085;28;20057;-74
2022/05/26 08:05:25;;;;;;;3.65;0.30;;;20.40;53.60;;;;;;4990377;28;20525;-73
2022/05/26 08:07:51;;;;;;;1.77;0.28;;;20.50;53.50;;;;;;4993376;28;20442;-74
2022/05/26 08:10:16;;;;;;;1.25;0.20;;;20.60;53.30;;;;;;4990833;28;20057;-74
2022/05/26 08:12:42;;;;;;;0.50;0.10;;;20.60;53.20;;;;;;4995715;28;20037;-75
2022/05/26 08:15:08;;;;;;;0.80;0.20;;;20.70;53.10;;;;;;4972319;28;20060;-75
2022/05/26 08:17:33;;;;;;;1.35;0.20;;;20.80;53.10;;;;;;4975746;28;20036;-73
2022/05/26 08:19:59;;;;;;;3.05;0.40;;;20.90;52.90;;;;;;4978146;28;20407;-73
2022/05/26 08:22:24;;;;;;;0.98;0.20;;;20.80;52.80;;;;;;4976218;28;20809;-74
2022/05/26 08:24:54;;;;;;;0.40;0.17;;;20.80;52.70;;;;;;4999229;28;20037;-75
2022/05/26 08:27:20;;;;;;;0.17;0.17;;;20.80;52.80;;;;;;4997659;28;20038;-74
2022/05/26 08:29:45;;;;;;;1.42;0.30;;;20.80;52.80;;;;;;4987761;28;20402;-74
2022/05/26 08:32:11;;;;;;;0.50;0.30;;;20.80;52.80;;;;;;4961152;28;20054;-73
2022/05/26 08:34:36;;;;;;;0.63;0.20;;;20.80;52.80;;;;;;4977860;28;20214;-73
2022/05/26 08:37:03;;;;;;;0.90;0.20;;;20.90;53.50;;;;;;4982797;28;20030;-75
2022/05/26 08:39:31;;;;;;;1.65;0.20;;;20.90;52.70;;;;;;4978722;28;20116;-73
2022/05/26 08:41:56;;;;;;;0.98;0.10;;;20.90;52.60;;;;;;4953753;28;20034;-70
2022/05/26 08:44:30;;;;;;;0.88;0.20;;;20.90;52.50;;;;;;4979667;28;20025;-72
2022/05/26 08:47:15;;;;;;;0.28;0.20;;;21.00;52.40;;;;;;4968528;28;20132;-70
2022/05/26 08:49:50;;;;;;;0.85;0.20;;;21.00;52.40;;;;;;4978480;28;20053;-73
2022/05/26 08:52:38;;;;;;;2.03;0.52;;;21.00;52.30;;;;;;4980797;28;20042;-73
2022/05/26 08:55:11;;;;;;;0.75;0.20;;;21.10;52.30;;;;;;4961692;28;20403;-73
2022/05/26 08:57:42;;;;;;;2.08;0.17;;;21.20;52.20;;;;;;4982789;28;20038;-73
2022/05/26 09:00:13;;;;;;;0.75;0.28;;;21.30;52.00;;;;;;4978095;28;20030;-73
2022/05/26 09:02:39;;;;;;;1.00;0.40;;;21.30;51.80;;;;;;4995293;28;20064;-73
2022/05/26 09:05:15;;;;;;;0.75;0.50;;;21.30;51.70;;;;;;4978424;28;20065;-73
2022/05/26 09:13:38;;;;;;;1.10;0.40;;;21.50;51.40;;;;;;4990973;28;20038;-73
2022/05/26 09:16:06;;;;;;;0.43;0.32;;;21.60;51.30;;;;;;4982019;28;20378;-73
2022/05/26 09:18:32;;;;;;;0.65;0.20;;;21.60;51.20;;;;;;4999423;28;20034;-73
2022/05/26 09:21:22;;;;;;;0.45;0.25;;;21.60;51.00;;;;;;4967123;28;20038;-72
2022/05/26 09:23:48;;;;;;;1.35;0.30;;;21.60;50.90;;;;;;4959772;28;20054;-73
2022/05/26 09:26:18;;;;;;;0.70;0.13;;;21.60;50.90;;;;;;4987329;28;20033;-73
2022/05/26 09:28:46;;;;;;;0.82;0.30;;;21.50;50.90;;;;;;4956283;28;20042;-73
2022/05/26 09:31:36;;;;;;;1.80;0.35;;;21.50;50.90;;;;;;4975187;28;20033;-74
2022/05/26 09:34:07;;;;;;;0.93;0.30;;;21.50;50.90;;;;;;4985096;28;21691;-73
2022/05/26 09:36:37;;;;;;;0.80;0.20;;;21.50;50.90;;;;;;4988454;28;20077;-73
2022/05/26 09:39:04;;;;;;;0.43;0.28;;;21.60;51.00;;;;;;4999478;28;20481;-74
2022/05/26 09:41:43;;;;;;;0.85;0.30;;;21.60;51.00;;;;;;4976927;28;20030;-73
2022/05/26 09:44:29;;;;;;;1.27;0.55;;;21.70;50.90;;;;;;4977865;28;20052;-73
2022/05/26 09:46:55;;;;;;;0.32;0.30;;;21.80;50.70;;;;;;4945261;28;20121;-73
2022/05/26 09:49:23;;;;;;;0.90;0.43;;;21.90;50.70;;;;;;5002474;28;20100;-74
2022/05/26 09:51:49;;;;;;;0.80;0.20;;;22.00;50.50;;;;;;4976159;28;20040;-74
2022/05/26 09:54:27;;;;;;;0.65;0.20;;;22.10;50.40;;;;;;4953293;28;20025;-73
2022/05/26 09:56:53;;;;;;;2.20;0.32;;;22.20;50.10;;;;;;4975695;28;20033;-73
2022/05/26 09:59:24;;;;;;;1.00;0.22;;;22.30;50.10;;;;;;4976613;28;20588;-74
2022/05/26 10:01:50;;;;;;;1.83;0.57;;;22.30;50.00;;;;;;5003526;28;20030;-73
2022/05/26 10:04:38;;;;;;;1.02;0.35;;;22.30;49.80;;;;;;5002407;28;20045;-73
2022/05/26 10:07:26;;;;;;;0.55;0.28;;;22.40;49.70;;;;;;4992923;28;20042;-74
2022/05/26 10:09:55;;;;;;;1.17;0.30;;;22.40;49.50;;;;;;5002377;28;20556;-73
2022/05/26 10:12:29;;;;;;;1.35;0.17;;;22.50;49.60;;;;;;4993228;28;20030;-73
2022/05/26 10:15:06;;;;;;;0.30;0.30;;;22.40;49.40;;;;;;4980763;28;20041;-73
2022/05/26 10:18:09;;;;;;;1.02;0.43;;;22.50;49.50;;;;;;4970560;28;20042;-73
2022/05/26 10:20:48;;;;;;;1.50;0.30;;;22.50;49.10;;;;;;4999269;28;20029;-74
2022/05/26 10:23:33;;;;;;;0.22;0.22;;;22.50;49.30;;;;;;4988347;28;20042;-73
2022/05/26 10:26:16;;;;;;;0.82;0.30;;;22.50;49.30;;;;;;4996281;28;20042;-74
2022/05/26 10:28:57;;;;;;;0.30;0.20;;;22.60;49.10;;;;;;4989133;28;20161;-73
2022/05/26 10:31:46;;;;;;;1.48;0.38;;;22.70;48.90;;;;;;4994409;28;20034;-73
2022/05/26 10:34:32;;;;;;;0.22;0.20;;;22.70;48.80;;;;;;4997326;28;20034;-73
2022/05/26 10:37:26;;;;;;;0.38;0.25;;;22.80;48.40;;;;;;4968742;28;20050;-73
2022/05/26 10:39:55;;;;;;;1.25;0.30;;;22.80;48.30;;;;;;4998030;28;20061;-74
2022/05/26 10:42:29;;;;;;;0.73;0.28;;;22.70;48.30;;;;;;4982227;28;20041;-74
2022/05/26 10:44:55;;;;;;;1.58;0.55;;;22.70;48.10;;;;;;4989242;28;20097;-73
2022/05/26 10:47:32;;;;;;;0.52;0.20;;;22.70;48.40;;;;;;4997188;28;20042;-73
2022/05/26 10:50:01;;;;;;;0.95;0.20;;;22.80;48.20;;;;;;4999325;28;20046;-73
2022/05/26 10:52:27;;;;;;;1.48;0.38;;;22.80;48.10;;;;;;5000329;28;20104;-74
2022/05/26 10:55:14;;;;;;;1.00;0.30;;;22.80;48.00;;;;;;4984014;28;20041;-75
2022/05/26 10:57:54;;;;;;;1.25;0.40;;;22.90;47.80;;;;;;4977952;28;20029;-74
2022/05/26 11:00:23;;;;;;;0.67;0.17;;;23.00;47.90;;;;;;4991832;28;20038;-74
2022/05/26 11:02:58;;;;;;;0.85;0.30;;;23.20;47.70;;;;;;4987518;28;20297;-74
2022/05/26 11:05:35;;;;;;;2.20;0.40;;;23.30;47.60;;;;;;4992006;28;20679;-74
2022/05/26 11:08:31;;;;;;;0.52;0.32;;;23.40;47.30;;;;;;4978393;28;20105;-74
2022/05/26 11:11:06;;;;;;;0.30;0.20;;;23.60;46.90;;;;;;4971843;28;20041;-74
2022/05/26 11:13:43;;;;;;;0.82;0.20;;;23.70;47.00;;;;;;4980671;28;20197;-74
2022/05/26 11:19:32;;;;;;;1.20;0.50;;;24.20;46.60;;;;;;4990833;28;20557;-74
2022/05/26 11:21:58;;;;;;;1.27;0.30;;;24.50;46.30;;;;;;4987297;28;20396;-75
2022/05/26 11:24:23;;;;;;;2.38;0.30;;;24.80;45.90;;;;;;4990817;28;20058;-75
2022/05/26 11:27:01;;;;;;;0.50;0.40;;;25.00;45.40;;;;;;4985176;28;20053;-75
2022/05/26 11:29:44;;;;;;;0.68;0.20;;;25.20;44.20;;;;;;4980960;28;20087;-75
2022/05/26 11:37:59;;;;;;;2.65;0.30;;;25.40;44.70;;;;;;4992729;28;20056;-74
2022/05/26 11:40:33;;;;;;;3.55;0.30;;;25.50;43.90;;;;;;4982507;28;20042;-75
2022/05/26 11:42:58;;;;;;;0.22;0.20;;;25.70;43.90;;;;;;4966002;28;20050;-74
2022/05/26 11:45:28;;;;;;;0.88;0.45;;;25.80;43.80;;;;;;4979462;28;20118;-75
2022/05/26 11:48:04;;;;;;;0.63;0.17;;;25.90;43.40;;;;;;4973632;28;20042;-76
2022/05/26 11:50:48;;;;;;;0.57;0.30;;;26.10;43.10;;;;;;4971583;28;20094;-74
2022/05/26 11:53:35;;;;;;;0.85;0.30;;;26.20;42.20;;;;;;4966167;28;20067;-74
2022/05/26 11:56:26;;;;;;;1.00;0.30;;;26.30;42.20;;;;;;4967721;28;20090;-75
2022/05/26 11:59:21;;;;;;;0.80;0.52;;;26.30;41.90;;;;;;4981887;28;20042;-75
2022/05/26 12:01:58;;;;;;;3.08;1.05;;;26.10;41.70;;;;;;4974361;28;20406;-74
2022/05/26 12:04:30;;;;;;;0.75;0.40;;;26.10;41.80;;;;;;4977035;28;20046;-75
2022/05/26 12:06:59;;;;;;;1.23;0.32;;;26.10;42.30;;;;;;4956113;28;20034;-74
2022/05/26 12:09:38;;;;;;;0.57;0.35;;;26.00;42.10;;;;;;4960820;28;20035;-75
2022/05/26 12:12:08;;;;;;;1.45;0.35;;;26.10;41.80;;;;;;4980335;28;20038;-74
2022/05/26 12:14:42;;;;;;;1.42;0.47;;;26.10;41.90;;;;;;4965018;28;20027;-75
2022/05/26 12:17:53;;;;;;;1.15;0.45;;;26.10;41.90;;;;;;4988861;28;20824;-74
2022/05/26 12:20:21;;;;;;;1.75;0.73;;;26.20;41.30;;;;;;4945590;28;20127;-74
2022/05/26 12:22:52;;;;;;;1.38;0.75;;;26.20;41.80;;;;;;4937577;28;20098;-75
2022/05/26 12:25:27;;;;;;;0.47;0.30;;;26.10;41.50;;;;;;4951643;28;20031;-75
2022/05/26 12:28:00;;;;;;;1.23;0.55;;;26.10;41.50;;;;;;4931241;28;20147;-74
2022/05/26 12:30:37;;;;;;;2.13;0.40;;;26.20;41.70;;;;;;4923404;28;20272;-76
2022/05/26 12:33:20;;;;;;;0.90;0.63;;;26.10;41.20;;;;;;4942582;28;20039;-74
2022/05/26 12:36:04;;;;;;;1.67;0.77;;;26.10;40.80;;;;;;4936547;28;20051;-75
2022/05/26 12:38:51;;;;;;;1.48;0.70;;;26.10;41.00;;;;;;4937016;28;20047;-75
2022/05/26 12:41:42;;;;;;;3.13;0.63;;;26.10;41.30;;;;;;4927678;28;20161;-73
2022/05/26 12:44:32;;;;;;;2.80;1.40;;;26.20;40.70;;;;;;4930157;28;20163;-73
2022/05/26 12:47:29;;;;;;;1.33;1.13;;;26.40;40.50;;;;;;4912076;28;20043;-74
2022/05/26 12:50:05;;;;;;;2.15;1.35;;;26.40;40.40;;;;;;4927778;28;20032;-73
2022/05/26 12:52:37;;;;;;;1.48;0.88;;;26.50;40.70;;;;;;4960462;28;20134;-73
2022/05/26 12:55:06;;;;;;;1.95;0.95;;;26.50;40.50;;;;;;4954077;28;20472;-74
2022/05/26 12:57:32;;;;;;;1.02;0.40;;;26.50;40.60;;;;;;4983218;28;20046;-73
2022/05/26 13:00:54;;;;;;;0.88;0.50;;;26.40;40.40;;;;;;4963114;28;20419;-73
2022/05/26 13:03:23;;;;;;;2.67;1.00;;;26.30;40.30;;;;;;4939142;28;20095;-73
2022/05/26 13:06:20;;;;;;;2.13;0.90;;;26.20;40.70;;;;;;4937626;28;20080;-73
2022/05/26 13:09:16;;;;;;;1.50;0.60;;;26.10;40.40;;;;;;4940159;28;20133;-75
2022/05/26 13:11:48;;;;;;;3.30;1.60;;;26.00;40.50;;;;;;4931078;28;20038;-75
2022/05/26 13:14:28;;;;;;;1.30;1.20;;;25.90;40.90;;;;;;4933563;28;20043;-75
2022/05/26 13:17:16;;;;;;;2.55;2.33;;;25.90;40.80;;;;;;4896920;28;20110;-75
2022/05/26 13:19:46;;;;;;;4.97;3.92;;;25.90;40.90;;;;;;4914901;28;20066;-76
2022/05/26 13:22:16;;;;;;;4.53;1.63;;;25.90;40.90;;;;;;4917753;28;20412;-76
2022/05/26 13:24:56;;;;;;;0.40;0.40;;;25.90;41.00;;;;;;4928089;28;20031;-74
2022/05/26 13:27:22;;;;;;;0.77;0.68;;;25.90;41.00;;;;;;4926971;28;20043;-75
2022/05/26 13:29:49;;;;;;;0.80;0.52;;;26.00;41.10;;;;;;4915835;28;20242;-73
2022/05/26 13:35:07;;;;;;;2.40;1.52;;;26.30;40.90;;;;;;4946806;28;20041;-73
2022/05/26 13:37:33;;;;;;;3.35;1.88;;;26.50;40.80;;;;;;4956484;28;20108;-72
2022/05/26 13:40:06;;;;;;;1.08;0.68;;;26.60;40.70;;;;;;4963041;28;20038;-73
2022/05/26 13:42:32;;;;;;;0.60;0.43;;;26.60;40.30;;;;;;4963762;28;20057;-73
2022/05/26 13:44:58;;;;;;;0.65;0.20;;;26.70;40.50;;;;;;4953235;28;20111;-73
2022/05/26 13:47:23;;;;;;;0.57;0.30;;;26.80;40.40;;;;;;4950680;28;20035;-73
2022/05/26 13:50:11;;;;;;;1.85;0.77;;;26.80;40.30;;;;;;4979457;28;20116;-73
2022/05/26 13:52:38;;;;;;;0.85;0.65;;;26.80;39.80;;;;;;4944866;28;20026;-73
2022/05/26 13:55:25;;;;;;;1.52;0.60;;;26.80;40.00;;;;;;4968865;28;20034;-72